Time;durP1;ratioP1;P1;durP2;ratioP2;P2;SDS_P1;SDS_P2;PMS_P1;PMS_P2;Temp;Humidity;BMP_temperature;BMP_pressure;BME280_temperature;BME280_humidity;BME280_pressure;Samples;Min_cycle;Max_cycle;Signal;HPM_P1;HPM_P2
2022/11/13 00:00:51;;;;;;;13.65;7.88;;;7.10;99.90;;;;;;5050592;28;20132;-65
2022/11/13 00:03:16;;;;;;;10.15;7.75;;;7.00;99.90;;;;;;5050674;28;20040;-65
2022/11/13 00:05:42;;;;;;;13.93;8.23;;;7.00;99.90;;;;;;5049137;28;20044;-65
2022/11/13 00:08:10;;;;;;;11.32;7.82;;;7.10;99.90;;;;;;5050862;28;20045;-65
2022/11/13 00:10:36;;;;;;;14.35;8.48;;;7.00;99.90;;;;;;5050817;28;20119;-65
2022/11/13 00:13:01;;;;;;;12.65;8.55;;;7.00;99.90;;;;;;5050834;28;20049;-65
2022/11/13 00:15:27;;;;;;;12.63;8.20;;;7.10;99.90;;;;;;5050488;28;20144;-65
2022/11/13 00:17:53;;;;;;;12.30;8.35;;;7.00;99.90;;;;;;5050970;28;20045;-65
2022/11/13 00:20:19;;;;;;;11.68;8.13;;;6.90;99.90;;;;;;5049004;28;20040;-65
2022/11/13 00:22:45;;;;;;;10.07;7.80;;;6.90;99.90;;;;;;5050507;28;20041;-65
2022/11/13 00:25:11;;;;;;;12.52;8.25;;;6.90;99.90;;;;;;5050102;28;20040;-65
2022/11/13 00:27:36;;;;;;;11.27;7.40;;;6.90;99.90;;;;;;5050421;28;20505;-65
2022/11/13 00:30:03;;;;;;;11.95;8.45;;;6.90;99.90;;;;;;5050492;28;20170;-65
2022/11/13 00:32:28;;;;;;;13.30;8.05;;;6.90;99.90;;;;;;5050169;28;20048;-65
2022/11/13 00:34:54;;;;;;;11.07;8.02;;;6.90;99.90;;;;;;5050001;28;20033;-66
2022/11/13 00:37:19;;;;;;;10.88;8.05;;;6.90;99.90;;;;;;5050275;28;20441;-65
2022/11/13 00:39:45;;;;;;;13.20;7.75;;;7.00;99.90;;;;;;5050524;28;20087;-65
2022/11/13 00:42:11;;;;;;;11.93;8.15;;;6.90;99.90;;;;;;5050022;28;20397;-65
2022/11/13 00:44:36;;;;;;;9.93;7.00;;;6.80;99.90;;;;;;5050166;28;20029;-65
2022/11/13 00:47:02;;;;;;;11.15;7.78;;;6.90;99.90;;;;;;5050279;28;20516;-65
2022/11/13 00:49:27;;;;;;;11.77;7.28;;;6.90;99.90;;;;;;5050251;28;20566;-65
2022/11/13 00:51:53;;;;;;;14.27;7.30;;;6.80;99.90;;;;;;5049918;28;20128;-65
2022/11/13 00:54:19;;;;;;;10.65;7.85;;;6.90;99.90;;;;;;5046580;28;20069;-65
2022/11/13 00:56:44;;;;;;;11.23;8.25;;;6.80;99.90;;;;;;5048828;28;20033;-65
2022/11/13 00:59:10;;;;;;;15.80;8.30;;;6.90;99.90;;;;;;5049952;28;20041;-65
2022/11/13 01:01:35;;;;;;;14.98;8.18;;;6.90;99.90;;;;;;5050288;28;20037;-65
2022/11/13 01:04:01;;;;;;;12.63;8.93;;;7.00;99.90;;;;;;5049845;28;20190;-65
2022/11/13 01:06:27;;;;;;;14.63;8.55;;;6.90;99.90;;;;;;5049965;28;20037;-65
2022/11/13 01:08:54;;;;;;;16.55;8.48;;;6.90;99.90;;;;;;5050065;28;20044;-65
2022/11/13 01:11:23;;;;;;;16.20;9.30;;;6.90;99.90;;;;;;5050704;28;20056;-65
2022/11/13 01:13:50;;;;;;;13.90;9.35;;;7.00;99.90;;;;;;5053314;28;20045;-65
2022/11/13 01:16:18;;;;;;;12.88;8.32;;;7.00;99.90;;;;;;5053790;28;20397;-65
2022/11/13 01:18:43;;;;;;;13.90;9.43;;;7.00;99.90;;;;;;5052048;28;20052;-65
2022/11/13 01:21:21;;;;;;;18.02;9.80;;;7.00;99.90;;;;;;5053695;28;20044;-65
2022/11/13 01:23:47;;;;;;;14.27;8.40;;;7.00;99.90;;;;;;5053456;28;20037;-65
2022/11/13 01:26:16;;;;;;;12.70;8.75;;;7.10;99.90;;;;;;5053551;28;20516;-65
2022/11/13 01:28:43;;;;;;;12.65;9.35;;;7.10;99.90;;;;;;5052038;28;20041;-65
2022/11/13 01:31:14;;;;;;;13.35;8.50;;;7.10;99.90;;;;;;5053061;28;20037;-65
2022/11/13 01:33:39;;;;;;;13.65;9.00;;;7.20;99.90;;;;;;5053252;28;20536;-65
2022/11/13 01:36:08;;;;;;;15.27;10.10;;;7.20;99.90;;;;;;5053318;28;20033;-65
2022/11/13 01:38:34;;;;;;;16.33;9.20;;;7.20;99.90;;;;;;5053429;28;20473;-65
2022/11/13 01:41:00;;;;;;;16.10;9.98;;;7.30;99.90;;;;;;5051468;28;20048;-65
2022/11/13 01:43:31;;;;;;;17.02;10.00;;;7.20;99.90;;;;;;5053295;28;20029;-65
2022/11/13 01:45:56;;;;;;;16.38;10.48;;;7.30;99.90;;;;;;5052879;28;20039;-65
2022/11/13 01:48:23;;;;;;;17.98;9.70;;;7.30;99.90;;;;;;5052055;28;20136;-65
2022/11/13 01:50:48;;;;;;;17.92;10.23;;;7.30;99.90;;;;;;5052998;28;20060;-65
2022/11/13 01:53:14;;;;;;;16.23;10.20;;;7.30;99.90;;;;;;5053114;28;20397;-65
2022/11/13 01:55:40;;;;;;;15.70;9.90;;;7.30;99.90;;;;;;5051256;28;20041;-65
2022/11/13 01:58:08;;;;;;;15.88;10.25;;;7.30;99.90;;;;;;5052746;28;20072;-65
2022/11/13 02:00:34;;;;;;;15.55;9.90;;;7.30;99.90;;;;;;5052593;28;20083;-65
2022/11/13 02:03:00;;;;;;;15.65;10.15;;;7.30;99.90;;;;;;5053002;28;20064;-65
2022/11/13 02:05:26;;;;;;;15.85;9.60;;;7.30;99.90;;;;;;5052397;28;20549;-65
2022/11/13 02:07:52;;;;;;;16.63;10.40;;;7.30;99.90;;;;;;5067816;28;20075;-65
2022/11/13 02:10:17;;;;;;;16.90;10.30;;;7.30;99.90;;;;;;5052579;28;20119;-66
2022/11/13 02:12:48;;;;;;;17.08;9.63;;;7.30;99.90;;;;;;5067833;28;20463;-65
2022/11/13 02:15:15;;;;;;;15.50;9.93;;;7.30;99.90;;;;;;5052249;28;20041;-65
2022/11/13 02:17:54;;;;;;;17.52;10.05;;;7.30;99.90;;;;;;5051106;28;20536;-65
2022/11/13 02:20:53;;;;;;;15.73;10.13;;;7.30;99.90;;;;;;5050844;28;20047;-65
2022/11/13 02:23:40;;;;;;;19.17;10.38;;;7.30;99.90;;;;;;5052202;28;20037;-65
2022/11/13 02:26:07;;;;;;;18.55;9.60;;;7.40;99.90;;;;;;5052289;28;20044;-65
2022/11/13 02:28:33;;;;;;;16.70;10.15;;;7.30;99.90;;;;;;5052446;28;20048;-66
2022/11/13 02:31:06;;;;;;;18.52;10.27;;;7.30;99.90;;;;;;5050935;28;20041;-65
2022/11/13 02:33:32;;;;;;;17.13;9.40;;;7.30;99.90;;;;;;5052416;28;20033;-65
2022/11/13 02:35:58;;;;;;;17.60;9.88;;;7.30;99.90;;;;;;5067534;28;20532;-65
2022/11/13 02:38:24;;;;;;;17.75;10.38;;;7.30;99.90;;;;;;5051984;28;20041;-65
2022/11/13 02:40:49;;;;;;;13.30;9.10;;;7.20;99.90;;;;;;5052212;28;20041;-65
2022/11/13 02:43:15;;;;;;;16.00;9.80;;;7.10;99.90;;;;;;5052008;28;20040;-65
2022/11/13 02:45:40;;;;;;;15.30;9.57;;;7.10;99.90;;;;;;5051590;28;20120;-65
2022/11/13 02:48:07;;;;;;;16.17;9.77;;;7.00;99.90;;;;;;5052047;28;20041;-65
2022/11/13 02:50:32;;;;;;;14.63;9.65;;;7.00;99.90;;;;;;5051938;28;20040;-65
2022/11/13 02:52:58;;;;;;;16.63;11.35;;;7.00;99.90;;;;;;5051912;28;20045;-66
2022/11/13 02:55:24;;;;;;;15.40;9.40;;;7.00;99.90;;;;;;5051678;28;20073;-66
2022/11/13 02:57:49;;;;;;;14.60;9.75;;;7.00;99.90;;;;;;5051742;28;20040;-65
2022/11/13 03:00:15;;;;;;;14.63;9.05;;;7.00;99.90;;;;;;5051574;28;20048;-65
2022/11/13 03:02:41;;;;;;;19.73;10.30;;;7.00;99.90;;;;;;5051587;28;20040;-65
2022/11/13 03:05:07;;;;;;;16.50;10.52;;;7.00;99.90;;;;;;5051180;28;20116;-65
2022/11/13 03:07:33;;;;;;;17.13;10.93;;;7.00;99.90;;;;;;5051869;28;20041;-65
2022/11/13 03:09:58;;;;;;;17.63;10.68;;;7.00;99.90;;;;;;5051594;28;20098;-65
2022/11/13 03:12:24;;;;;;;17.73;9.95;;;7.10;99.90;;;;;;5051553;28;20120;-65
2022/11/13 03:14:50;;;;;;;17.42;10.90;;;7.10;99.90;;;;;;5051383;28;20051;-65
2022/11/13 03:17:15;;;;;;;22.27;11.23;;;7.10;99.90;;;;;;5033563;28;20044;-65
2022/11/13 03:19:41;;;;;;;17.08;10.65;;;7.00;99.90;;;;;;5051206;28;20049;-66
2022/11/13 03:22:06;;;;;;;18.52;11.48;;;7.10;99.90;;;;;;5051159;28;20041;-65
2022/11/13 03:24:32;;;;;;;16.77;10.80;;;7.10;99.90;;;;;;5050919;28;20044;-65
2022/11/13 03:26:57;;;;;;;19.02;11.13;;;7.10;99.90;;;;;;5051291;28;20067;-66
2022/11/13 03:29:23;;;;;;;16.50;10.10;;;7.10;99.90;;;;;;5051342;28;20454;-65
2022/11/13 03:31:48;;;;;;;18.23;10.88;;;7.10;99.90;;;;;;5051246;28;20045;-65
2022/11/13 03:34:14;;;;;;;16.77;9.95;;;7.00;99.90;;;;;;5065683;28;20409;-65
2022/11/13 03:36:39;;;;;;;19.75;11.68;;;7.00;99.90;;;;;;5049986;28;20512;-65
2022/11/13 03:39:05;;;;;;;17.48;10.35;;;7.00;99.90;;;;;;5051144;28;20564;-65
2022/11/13 03:41:30;;;;;;;20.58;11.32;;;6.90;99.90;;;;;;5050786;28;20065;-65
2022/11/13 03:43:56;;;;;;;16.10;9.55;;;6.90;99.90;;;;;;5050534;28;20040;-65
2022/11/13 03:46:21;;;;;;;15.50;9.98;;;6.90;99.90;;;;;;5049628;28;20045;-65
2022/11/13 03:48:47;;;;;;;18.90;10.68;;;6.80;99.90;;;;;;5050828;28;20094;-65
2022/11/13 03:51:13;;;;;;;16.70;10.68;;;6.80;99.90;;;;;;5050945;28;20099;-65
2022/11/13 03:53:38;;;;;;;16.90;11.70;;;6.80;99.90;;;;;;5050887;28;20116;-65
2022/11/13 03:56:04;;;;;;;18.90;10.60;;;6.80;99.90;;;;;;5049409;28;20041;-65
2022/11/13 03:58:29;;;;;;;15.85;9.35;;;6.80;99.90;;;;;;5049450;28;20041;-65
2022/11/13 04:00:55;;;;;;;19.42;11.00;;;6.80;99.90;;;;;;5050825;28;20052;-65
2022/11/13 04:03:21;;;;;;;16.95;10.93;;;6.80;99.90;;;;;;5050561;28;20044;-65
2022/11/13 04:05:49;;;;;;;18.48;10.57;;;6.90;99.90;;;;;;5050661;28;20371;-65
2022/11/13 04:08:16;;;;;;;21.38;11.23;;;6.90;99.90;;;;;;5050581;28;20493;-65
2022/11/13 04:10:42;;;;;;;16.83;10.18;;;6.80;99.90;;;;;;5050762;28;20438;-65
2022/11/13 04:13:07;;;;;;;19.25;10.80;;;6.80;99.90;;;;;;5050846;28;20139;-66
2022/11/13 04:15:33;;;;;;;19.25;10.50;;;6.80;99.90;;;;;;5050411;28;20497;-65
2022/11/13 04:17:59;;;;;;;18.52;11.45;;;6.80;99.90;;;;;;5050487;28;20041;-65
2022/11/13 04:20:26;;;;;;;14.95;9.23;;;6.80;99.90;;;;;;5050360;28;20056;-65
2022/11/13 04:22:52;;;;;;;14.55;10.23;;;6.80;99.90;;;;;;5050743;28;20134;-65
2022/11/13 04:25:18;;;;;;;19.10;11.05;;;6.70;99.90;;;;;;5050134;28;20048;-65
2022/11/13 04:27:44;;;;;;;18.17;10.80;;;6.70;99.90;;;;;;5050864;28;20041;-65
2022/11/13 04:30:10;;;;;;;19.70;10.10;;;6.70;99.90;;;;;;5050363;28;20512;-65
2022/11/13 04:32:35;;;;;;;17.13;10.30;;;6.70;99.90;;;;;;5050871;28;20082;-66
2022/11/13 04:35:01;;;;;;;23.10;11.57;;;6.70;99.90;;;;;;5049974;28;20099;-65
2022/11/13 04:37:26;;;;;;;21.02;11.73;;;6.70;99.90;;;;;;5050706;28;20040;-65
2022/11/13 04:39:52;;;;;;;19.48;10.57;;;6.70;99.90;;;;;;5050694;28;20041;-66
2022/11/13 04:45:02;;;;;;;16.92;11.13;;;6.80;99.90;;;;;;5050316;28;20052;-65
2022/11/13 04:47:28;;;;;;;16.83;10.32;;;6.80;99.90;;;;;;5053396;28;20624;-66
2022/11/13 04:49:53;;;;;;;17.92;10.32;;;6.80;99.90;;;;;;5054137;28;20051;-65
2022/11/13 04:52:19;;;;;;;16.25;9.90;;;6.80;99.90;;;;;;5053927;28;20087;-65
2022/11/13 04:54:44;;;;;;;16.80;10.13;;;6.70;99.90;;;;;;5053862;28;20553;-66
2022/11/13 04:57:10;;;;;;;14.13;10.18;;;6.70;99.90;;;;;;5054137;28;20041;-65
2022/11/13 04:59:35;;;;;;;15.65;10.32;;;6.70;99.90;;;;;;5053724;28;20045;-65
2022/11/13 05:02:01;;;;;;;16.13;10.13;;;6.70;99.90;;;;;;5054060;28;20143;-65
2022/11/13 05:04:27;;;;;;;16.88;9.82;;;6.70;99.90;;;;;;5053826;28;20108;-66
2022/11/13 05:06:52;;;;;;;15.52;10.55;;;6.70;99.90;;;;;;5054011;28;20047;-65
2022/11/13 05:09:18;;;;;;;15.50;10.02;;;6.70;99.90;;;;;;5054135;28;20049;-65
2022/11/13 05:11:44;;;;;;;17.27;10.10;;;6.60;99.90;;;;;;5053613;28;20094;-65
2022/11/13 05:14:13;;;;;;;18.25;10.50;;;6.70;99.90;;;;;;5052025;28;20059;-65
2022/11/13 05:16:39;;;;;;;16.10;10.30;;;6.70;99.90;;;;;;5053845;28;20079;-65
2022/11/13 05:19:07;;;;;;;18.60;11.30;;;6.70;99.90;;;;;;5052053;28;20064;-65
2022/11/13 05:21:35;;;;;;;16.85;10.43;;;6.70;99.90;;;;;;5053655;28;20477;-65
2022/11/13 05:24:01;;;;;;;16.50;11.07;;;6.60;99.90;;;;;;5052192;28;20045;-65
2022/11/13 05:26:26;;;;;;;17.55;10.13;;;6.60;99.90;;;;;;5053474;28;20033;-65
2022/11/13 05:28:55;;;;;;;17.70;10.35;;;6.60;99.90;;;;;;5053309;28;20078;-65
2022/11/13 05:31:20;;;;;;;14.88;9.63;;;6.60;99.90;;;;;;5052205;28;20037;-65
2022/11/13 05:33:46;;;;;;;16.15;10.63;;;6.50;99.90;;;;;;5035149;28;20055;-65
2022/11/13 05:36:13;;;;;;;17.63;10.75;;;6.40;99.90;;;;;;5053461;28;20037;-65
2022/11/13 05:38:40;;;;;;;17.45;10.70;;;6.40;99.90;;;;;;5053327;28;20048;-65
2022/11/13 05:41:16;;;;;;;17.70;9.52;;;6.40;99.90;;;;;;5053099;28;20417;-65
2022/11/13 05:43:42;;;;;;;15.48;10.50;;;6.40;99.90;;;;;;5053337;28;20040;-65
2022/11/13 05:46:13;;;;;;;13.80;9.90;;;6.30;99.90;;;;;;5052830;28;20047;-65
2022/11/13 05:48:39;;;;;;;18.65;10.95;;;6.30;99.90;;;;;;5051781;28;20045;-65
2022/11/13 05:51:11;;;;;;;18.58;11.00;;;6.40;99.90;;;;;;5052920;28;20393;-66
2022/11/13 05:53:37;;;;;;;15.00;10.07;;;6.50;99.90;;;;;;5053305;28;20041;-65
2022/11/13 05:56:06;;;;;;;17.00;9.98;;;6.40;99.90;;;;;;5052309;28;20049;-65
2022/11/13 05:58:33;;;;;;;14.40;9.52;;;6.40;99.90;;;;;;5052312;28;20558;-65
2022/11/13 06:01:27;;;;;;;16.27;10.60;;;6.30;99.90;;;;;;5052762;28;20040;-65
2022/11/13 06:03:54;;;;;;;15.27;9.45;;;6.30;99.90;;;;;;5050925;28;20095;-65
2022/11/13 06:06:21;;;;;;;15.88;9.00;;;6.30;99.90;;;;;;5052574;28;20037;-66
2022/11/13 06:08:48;;;;;;;16.20;9.48;;;6.30;99.90;;;;;;5053036;28;20068;-66
2022/11/13 06:11:16;;;;;;;19.73;10.00;;;6.30;99.90;;;;;;5051430;28;20052;-65
2022/11/13 06:13:41;;;;;;;13.98;9.60;;;6.30;99.90;;;;;;5052603;28;20123;-65
2022/11/13 06:16:15;;;;;;;19.77;10.65;;;6.20;99.90;;;;;;5052442;28;20140;-66
2022/11/13 06:18:42;;;;;;;18.17;9.73;;;6.20;99.90;;;;;;5051526;28;20640;-65
2022/11/13 06:21:11;;;;;;;19.45;10.60;;;6.10;99.90;;;;;;5052260;28;20509;-66
2022/11/13 06:23:38;;;;;;;17.15;10.00;;;6.10;99.90;;;;;;5052514;28;20037;-66
2022/11/13 06:26:07;;;;;;;15.00;8.98;;;6.10;99.90;;;;;;5052399;28;20060;-66
2022/11/13 06:28:34;;;;;;;16.42;10.23;;;6.00;99.90;;;;;;5052562;28;20040;-66
2022/11/13 06:31:03;;;;;;;17.80;10.63;;;6.10;99.90;;;;;;5052637;28;20093;-65
2022/11/13 06:33:29;;;;;;;13.30;9.10;;;6.10;99.90;;;;;;5050952;28;20045;-65
2022/11/13 06:35:55;;;;;;;15.30;9.82;;;6.10;99.90;;;;;;5049715;28;20044;-66
2022/11/13 06:38:20;;;;;;;18.95;9.82;;;6.20;99.90;;;;;;5052371;28;20436;-66
2022/11/13 06:40:46;;;;;;;14.57;9.20;;;6.10;99.90;;;;;;5051351;28;20103;-65
2022/11/13 06:43:11;;;;;;;18.90;10.35;;;6.20;99.90;;;;;;5051277;28;20040;-66
2022/11/13 06:45:37;;;;;;;13.70;9.63;;;6.10;99.90;;;;;;5050742;28;20047;-66
2022/11/13 06:48:02;;;;;;;17.00;10.27;;;6.10;99.90;;;;;;5051007;28;20036;-66
2022/11/13 06:50:28;;;;;;;17.02;9.68;;;6.10;99.90;;;;;;5050732;28;20056;-65
2022/11/13 06:52:54;;;;;;;15.77;10.23;;;6.10;99.90;;;;;;5050683;28;20044;-66
2022/11/13 06:55:19;;;;;;;14.98;9.20;;;6.10;99.90;;;;;;5051488;28;20037;-66
2022/11/13 06:57:45;;;;;;;14.48;9.10;;;6.10;99.90;;;;;;5051684;28;20133;-65
2022/11/13 07:00:11;;;;;;;13.90;8.77;;;6.00;99.90;;;;;;5051565;28;20060;-66
2022/11/13 07:02:37;;;;;;;13.80;9.30;;;6.10;99.90;;;;;;5051840;28;20125;-66
2022/11/13 07:05:02;;;;;;;13.75;9.00;;;6.10;99.90;;;;;;5050025;28;20037;-66
2022/11/13 07:07:28;;;;;;;16.67;9.48;;;6.00;99.90;;;;;;5051910;28;20029;-66
2022/11/13 07:09:53;;;;;;;15.13;9.80;;;6.00;99.90;;;;;;5050631;28;20041;-66
2022/11/13 07:12:19;;;;;;;19.40;9.95;;;6.00;99.90;;;;;;5051482;28;20051;-66
2022/11/13 07:14:44;;;;;;;16.70;9.13;;;6.00;99.90;;;;;;5051118;28;20041;-66
2022/11/13 07:17:10;;;;;;;13.60;8.48;;;6.00;99.90;;;;;;5051543;28;20045;-66
2022/11/13 07:19:35;;;;;;;19.05;9.07;;;5.90;99.90;;;;;;5051419;28;20045;-65
2022/11/13 07:22:01;;;;;;;15.20;10.27;;;5.90;99.90;;;;;;5051349;28;20485;-66
2022/11/13 07:24:26;;;;;;;14.77;9.75;;;5.90;99.90;;;;;;5051345;28;20033;-66
2022/11/13 07:26:52;;;;;;;15.90;9.50;;;6.00;99.90;;;;;;5051275;28;20035;-65
2022/11/13 07:29:17;;;;;;;16.23;9.65;;;5.90;99.90;;;;;;5051305;28;20136;-66
2022/11/13 07:31:43;;;;;;;14.60;9.35;;;5.80;99.90;;;;;;5050845;28;20080;-66
2022/11/13 07:34:08;;;;;;;16.63;9.93;;;5.90;99.90;;;;;;5051033;28;20045;-66
2022/11/13 07:36:34;;;;;;;14.15;9.27;;;5.90;99.90;;;;;;5051173;28;20098;-66
2022/11/13 07:39:00;;;;;;;15.48;9.27;;;6.00;99.90;;;;;;5051332;28;20094;-66
2022/11/13 07:41:25;;;;;;;14.23;8.65;;;6.00;99.90;;;;;;5050771;28;20118;-65
2022/11/13 07:43:51;;;;;;;20.70;9.20;;;6.00;99.90;;;;;;5050993;28;20080;-65
2022/11/13 07:46:16;;;;;;;18.13;8.82;;;6.10;99.90;;;;;;5050593;28;20103;-65
2022/11/13 07:48:42;;;;;;;15.73;10.10;;;6.00;99.90;;;;;;5050609;28;20108;-65
2022/11/13 07:51:07;;;;;;;18.98;10.38;;;6.10;99.90;;;;;;5050859;28;20068;-65
2022/11/13 07:53:34;;;;;;;19.33;10.77;;;6.20;99.90;;;;;;5050303;28;20037;-66
2022/11/13 07:56:01;;;;;;;17.60;10.02;;;6.20;99.90;;;;;;5050077;28;20080;-66
2022/11/13 07:58:26;;;;;;;15.15;9.60;;;6.30;99.90;;;;;;5049482;28;20037;-65
2022/11/13 08:00:52;;;;;;;14.23;9.38;;;6.30;99.90;;;;;;5049817;28;20041;-70
2022/11/13 08:03:17;;;;;;;16.10;10.48;;;6.30;99.90;;;;;;5050493;28;20079;-65
2022/11/13 08:05:43;;;;;;;16.05;10.18;;;6.40;99.90;;;;;;5050824;28;20033;-66
2022/11/13 08:08:13;;;;;;;16.88;10.15;;;6.40;99.90;;;;;;5050413;28;20471;-66
2022/11/13 08:10:39;;;;;;;17.65;10.70;;;6.40;99.90;;;;;;5049948;28;20409;-66
2022/11/13 08:13:07;;;;;;;16.50;9.80;;;6.40;99.90;;;;;;5050747;28;20045;-66
2022/11/13 08:15:33;;;;;;;17.40;9.95;;;6.50;99.90;;;;;;5050554;28;20102;-66
2022/11/13 08:18:01;;;;;;;19.13;11.27;;;6.50;99.90;;;;;;5050581;28;20037;-65
2022/11/13 08:20:28;;;;;;;17.52;10.50;;;6.50;99.90;;;;;;5051781;28;20040;-66
2022/11/13 08:22:59;;;;;;;16.35;10.18;;;6.60;99.90;;;;;;5054499;28;20037;-66
2022/11/13 08:25:25;;;;;;;17.02;11.20;;;6.70;99.90;;;;;;5054081;28;20082;-66
2022/11/13 08:27:52;;;;;;;14.82;10.25;;;6.70;99.90;;;;;;5053360;28;20388;-65
2022/11/13 08:30:18;;;;;;;16.65;9.82;;;6.80;99.90;;;;;;5054073;28;20521;-65
2022/11/13 08:32:44;;;;;;;17.23;10.95;;;6.90;99.90;;;;;;5053050;28;20112;-66
2022/11/13 08:35:10;;;;;;;13.85;9.75;;;7.00;99.90;;;;;;5053872;28;20040;-66
2022/11/13 08:37:35;;;;;;;13.20;9.40;;;7.00;99.90;;;;;;5054311;28;20053;-66
2022/11/13 08:40:01;;;;;;;15.45;9.93;;;7.00;99.90;;;;;;5054025;28;20041;-65
2022/11/13 08:42:27;;;;;;;17.88;10.20;;;7.10;99.90;;;;;;5053978;28;20531;-66
2022/11/13 08:44:52;;;;;;;14.27;10.05;;;7.10;99.90;;;;;;5053700;28;20101;-66
2022/11/13 08:47:18;;;;;;;15.00;10.02;;;7.20;99.90;;;;;;5052808;28;20060;-65
2022/11/13 08:49:43;;;;;;;18.58;10.13;;;7.20;99.90;;;;;;5054082;28;20064;-65
2022/11/13 08:52:09;;;;;;;13.43;9.40;;;7.30;99.90;;;;;;5053752;28;20505;-65
2022/11/13 08:54:34;;;;;;;14.85;10.43;;;7.30;99.90;;;;;;5054096;28;20041;-65
2022/11/13 08:57:00;;;;;;;16.10;9.75;;;7.30;99.90;;;;;;5054001;28;20048;-65
2022/11/13 08:59:26;;;;;;;16.10;10.23;;;7.40;99.90;;;;;;5052949;28;20037;-65
2022/11/13 09:01:57;;;;;;;14.45;9.00;;;7.40;99.90;;;;;;5054075;28;20048;-69
2022/11/13 09:04:24;;;;;;;15.55;10.30;;;7.50;99.90;;;;;;5052491;28;20072;-68
2022/11/13 09:06:50;;;;;;;14.95;9.88;;;7.50;99.90;;;;;;5054076;28;20048;-68
2022/11/13 09:09:15;;;;;;;16.40;10.05;;;7.60;99.90;;;;;;5052362;28;20055;-68
2022/11/13 09:11:41;;;;;;;12.95;9.50;;;7.60;99.90;;;;;;5053624;28;20045;-68
2022/11/13 09:14:06;;;;;;;16.38;9.82;;;7.60;99.90;;;;;;5053823;28;20056;-68
2022/11/13 09:16:32;;;;;;;12.85;9.27;;;7.70;99.90;;;;;;5052312;28;20037;-68
2022/11/13 09:18:57;;;;;;;11.25;8.68;;;7.70;99.90;;;;;;5053604;28;20523;-68
2022/11/13 09:21:23;;;;;;;15.05;9.32;;;7.70;99.90;;;;;;5053533;28;20037;-66
2022/11/13 09:23:49;;;;;;;13.90;9.30;;;7.80;99.90;;;;;;5053440;28;20063;-66
2022/11/13 09:26:15;;;;;;;15.40;9.35;;;7.80;99.90;;;;;;5052199;28;20076;-66
2022/11/13 09:28:40;;;;;;;12.93;8.13;;;7.90;99.90;;;;;;5053624;28;20037;-68
2022/11/13 09:31:06;;;;;;;16.02;8.90;;;8.00;99.90;;;;;;5053289;28;20382;-66
2022/11/13 09:33:33;;;;;;;13.90;8.65;;;8.00;99.90;;;;;;5052713;28;20071;-66
2022/11/13 09:35:59;;;;;;;15.18;9.90;;;8.10;99.90;;;;;;5052130;28;20576;-66
2022/11/13 09:38:24;;;;;;;13.60;9.38;;;8.10;99.90;;;;;;5052012;28;20127;-66
2022/11/13 09:40:58;;;;;;;14.38;10.05;;;8.10;99.90;;;;;;5053241;28;20121;-66
2022/11/13 09:43:33;;;;;;;15.75;10.02;;;8.20;99.90;;;;;;5053271;28;20481;-66
2022/11/13 09:46:04;;;;;;;14.52;8.98;;;8.20;99.90;;;;;;5053271;28;20044;-66
2022/11/13 09:48:35;;;;;;;15.05;9.80;;;8.20;99.90;;;;;;5053270;28;20041;-66
2022/11/13 09:51:06;;;;;;;12.77;9.20;;;8.30;99.90;;;;;;5053294;28;20536;-66
2022/11/13 09:53:35;;;;;;;18.10;9.35;;;8.30;99.90;;;;;;5053044;28;20040;-66
2022/11/13 09:56:31;;;;;;;13.63;9.30;;;8.40;99.90;;;;;;5052680;28;20037;-66
2022/11/13 09:59:21;;;;;;;12.75;9.25;;;8.40;99.90;;;;;;5052248;28;20036;-65
2022/11/13 10:02:06;;;;;;;13.02;9.30;;;8.60;99.90;;;;;;5052043;28;20424;-66
2022/11/13 10:04:47;;;;;;;15.40;9.95;;;8.70;99.90;;;;;;5051234;28;20110;-65
2022/11/13 10:07:26;;;;;;;14.75;8.95;;;8.70;99.90;;;;;;5051668;28;20161;-66
2022/11/13 10:10:18;;;;;;;15.10;9.45;;;8.80;99.90;;;;;;5032788;28;20042;-66
2022/11/13 10:12:47;;;;;;;13.43;9.18;;;8.80;99.90;;;;;;5032902;28;20077;-66
2022/11/13 10:15:15;;;;;;;15.43;9.25;;;8.90;99.90;;;;;;5030594;28;20068;-66
2022/11/13 10:18:00;;;;;;;18.20;9.57;;;8.90;99.90;;;;;;5047717;28;20056;-66
2022/11/13 10:20:47;;;;;;;14.88;9.75;;;9.00;99.90;;;;;;5049789;28;20130;-65
2022/11/13 10:23:18;;;;;;;14.18;9.05;;;9.10;99.90;;;;;;5051394;28;20033;-66
2022/11/13 10:25:44;;;;;;;13.20;8.40;;;9.20;99.90;;;;;;5051608;28;20517;-69
2022/11/13 10:28:22;;;;;;;11.98;8.63;;;9.20;99.90;;;;;;5050073;28;20033;-69
2022/11/13 10:30:48;;;;;;;11.77;8.60;;;9.30;99.90;;;;;;5052000;28;20140;-68
2022/11/13 10:33:18;;;;;;;11.80;8.43;;;9.30;99.90;;;;;;5049388;28;20045;-69
2022/11/13 10:35:51;;;;;;;11.70;8.13;;;9.40;99.90;;;;;;5051300;28;20120;-68
2022/11/13 10:38:29;;;;;;;13.25;9.05;;;9.60;99.90;;;;;;5051348;28;20397;-68
2022/11/13 10:41:25;;;;;;;11.63;8.35;;;9.60;99.90;;;;;;5050272;28;20120;-69
2022/11/13 10:43:54;;;;;;;10.00;7.45;;;9.70;99.90;;;;;;5042744;28;20052;-69
2022/11/13 10:46:23;;;;;;;11.80;7.93;;;9.70;99.90;;;;;;5051350;28;20489;-69
2022/11/13 10:48:49;;;;;;;12.52;8.20;;;9.80;99.90;;;;;;5050288;28;20037;-69
2022/11/13 10:51:30;;;;;;;12.38;8.43;;;9.90;99.90;;;;;;5051879;28;20101;-70
2022/11/13 10:53:58;;;;;;;11.43;7.60;;;9.90;99.90;;;;;;5050264;28;20393;-69
2022/11/13 10:56:32;;;;;;;10.25;7.80;;;10.00;99.90;;;;;;5050002;28;20106;-69
2022/11/13 10:59:15;;;;;;;13.25;7.95;;;10.00;99.90;;;;;;5049451;28;20072;-70
2022/11/13 11:01:42;;;;;;;13.82;7.88;;;10.10;99.90;;;;;;5051735;28;20043;-69
2022/11/13 11:04:34;;;;;;;14.40;7.05;;;10.20;99.90;;;;;;5049758;28;20047;-69
2022/11/13 11:07:20;;;;;;;9.70;6.55;;;10.40;99.90;;;;;;5048780;28;20081;-69
2022/11/13 11:09:47;;;;;;;8.68;6.75;;;10.50;99.90;;;;;;5050897;28;20045;-69
2022/11/13 11:12:25;;;;;;;8.15;5.95;;;10.60;99.90;;;;;;5050024;28;20051;-69
2022/11/13 11:14:59;;;;;;;8.98;5.45;;;10.70;99.90;;;;;;5050940;28;20086;-69
2022/11/13 11:17:39;;;;;;;7.53;5.70;;;10.80;99.90;;;;;;5050636;28;20048;-66
2022/11/13 11:20:13;;;;;;;7.47;5.20;;;10.90;99.90;;;;;;5051196;28;20052;-66
2022/11/13 11:22:39;;;;;;;9.68;6.63;;;11.00;99.90;;;;;;5051327;28;20041;-66
2022/11/13 11:25:28;;;;;;;7.78;5.13;;;11.10;99.90;;;;;;5051123;28;20041;-66
2022/11/13 11:28:08;;;;;;;7.07;5.50;;;11.10;99.90;;;;;;5049021;28;20072;-66
2022/11/13 11:30:43;;;;;;;11.07;6.72;;;11.10;99.90;;;;;;5048998;28;20041;-66
2022/11/13 11:33:24;;;;;;;9.30;6.05;;;11.20;99.90;;;;;;5048049;28;20552;-66
2022/11/13 11:36:00;;;;;;;6.70;5.25;;;11.20;99.90;;;;;;5048070;28;20052;-66
2022/11/13 11:38:36;;;;;;;7.28;5.85;;;11.30;99.90;;;;;;5050828;28;20528;-66
2022/11/13 11:41:16;;;;;;;6.82;5.18;;;11.30;99.90;;;;;;5050469;28;20078;-66
2022/11/13 11:43:53;;;;;;;8.50;5.47;;;11.50;99.90;;;;;;5050363;28;20033;-67
2022/11/13 11:46:23;;;;;;;7.05;5.07;;;11.50;99.90;;;;;;5050751;28;20037;-67
2022/11/13 11:48:49;;;;;;;8.45;5.10;;;11.60;99.90;;;;;;5051071;28;20393;-66
2022/11/13 11:51:41;;;;;;;7.00;5.18;;;11.60;99.90;;;;;;5050845;28;20049;-66
2022/11/13 11:54:39;;;;;;;10.30;5.37;;;11.70;99.90;;;;;;5050709;28;20075;-66
2022/11/13 11:57:25;;;;;;;8.10;5.57;;;11.80;99.90;;;;;;5050598;28;20851;-66
2022/11/13 12:00:06;;;;;;;7.75;5.35;;;11.70;99.90;;;;;;5050812;28;20598;-66
2022/11/13 12:02:54;;;;;;;10.20;5.60;;;11.80;99.90;;;;;;5050720;28;20045;-66
2022/11/13 12:05:49;;;;;;;6.60;5.28;;;11.80;99.90;;;;;;5050748;28;20398;-66
2022/11/13 12:09:00;;;;;;;8.60;5.85;;;11.90;99.90;;;;;;5049059;28;20087;-66
2022/11/13 12:11:33;;;;;;;9.45;6.45;;;11.90;99.90;;;;;;5048837;28;20110;-66
2022/11/13 12:14:19;;;;;;;9.00;5.97;;;11.80;99.90;;;;;;5050664;28;20047;-66
2022/11/13 12:17:07;;;;;;;7.20;5.45;;;11.90;99.90;;;;;;5050795;28;20037;-66
2022/11/13 12:19:59;;;;;;;9.98;5.93;;;11.90;99.90;;;;;;5049339;28;20052;-66
2022/11/13 12:22:38;;;;;;;9.52;5.47;;;11.90;99.90;;;;;;5050766;28;20083;-66
2022/11/13 12:25:26;;;;;;;7.75;5.20;;;12.00;99.90;;;;;;5050348;28;20052;-66
2022/11/13 12:28:00;;;;;;;8.32;5.65;;;12.00;99.90;;;;;;5050744;28;20029;-66
2022/11/13 12:31:06;;;;;;;6.47;4.60;;;12.10;99.90;;;;;;5050526;28;20461;-66
2022/11/13 12:33:51;;;;;;;6.72;4.43;;;12.10;99.90;;;;;;5049077;28;20055;-66
2022/11/13 12:36:19;;;;;;;5.40;4.22;;;12.20;99.90;;;;;;5050846;28;20037;-66
2022/11/13 12:39:00;;;;;;;5.85;4.68;;;12.30;99.90;;;;;;5050695;28;20037;-66
2022/11/13 12:41:49;;;;;;;7.07;4.78;;;12.30;99.90;;;;;;5050607;28;20068;-66
2022/11/13 12:44:25;;;;;;;6.47;4.18;;;12.40;99.90;;;;;;5050340;28;20041;-66
2022/11/13 12:46:52;;;;;;;8.32;4.55;;;12.30;99.90;;;;;;5050466;28;20497;-66
2022/11/13 12:49:30;;;;;;;11.35;5.45;;;12.40;99.90;;;;;;5050579;28;20080;-66
2022/11/13 12:52:15;;;;;;;7.80;4.40;;;12.40;99.90;;;;;;5050517;28;20056;-66
2022/11/13 12:54:41;;;;;;;6.88;4.78;;;12.50;99.90;;;;;;5050137;28;20048;-66
2022/11/13 12:57:13;;;;;;;9.27;4.55;;;12.50;99.90;;;;;;5049887;28;20070;-70